createdAt,value
2023-04-28T00:00:02.052Z,7.10
2023-04-28T00:02:35.598Z,7.22
2023-04-28T00:05:03.787Z,6.95
2023-04-28T00:07:32.185Z,6.85
2023-04-28T00:10:00.045Z,8.02
2023-04-28T00:12:27.961Z,7.63
2023-04-28T00:14:55.897Z,7.47
2023-04-28T00:17:23.802Z,6.80
2023-04-28T00:19:53.070Z,7.00
2023-04-28T00:22:20.891Z,7.00
2023-04-28T00:24:48.668Z,7.40
2023-04-28T00:27:17.847Z,7.45
2023-04-28T00:29:45.966Z,7.50
2023-04-28T00:32:14.441Z,7.90
2023-04-28T00:34:42.405Z,7.97
2023-04-28T00:37:11.837Z,8.23
2023-04-28T00:39:41.582Z,8.23
2023-04-28T00:42:09.352Z,8.25
2023-04-28T00:44:37.488Z,7.65
2023-04-28T00:47:05.663Z,7.50
2023-04-28T00:49:34.297Z,7.82
2023-04-28T00:52:05.235Z,7.43
2023-04-28T00:54:35.489Z,7.40
2023-04-28T00:57:04.854Z,7.03
2023-04-28T00:59:32.845Z,7.30
2023-04-28T01:02:01.688Z,6.93
2023-04-28T01:04:30.318Z,7.82
2023-04-28T01:06:58.778Z,7.57
2023-04-28T01:09:26.746Z,7.55
2023-04-28T01:11:58.404Z,6.88
2023-04-28T01:14:52.782Z,7.07
2023-04-28T01:17:20.707Z,6.18
2023-04-28T01:19:48.627Z,6.03
2023-04-28T01:22:16.748Z,6.47
2023-04-28T01:24:46.782Z,7.00
2023-04-28T01:27:15.583Z,6.40
2023-04-28T01:29:43.497Z,6.15
2023-04-28T01:32:11.336Z,6.40
2023-04-28T01:34:40.510Z,7.10
2023-04-28T01:37:08.379Z,6.43
2023-04-28T01:39:38.159Z,6.07
2023-04-28T01:42:07.458Z,6.00
2023-04-28T01:44:35.427Z,6.75
2023-04-28T01:47:06.224Z,7.68
2023-04-28T01:49:36.248Z,6.80
2023-04-28T01:52:04.095Z,6.07
2023-04-28T01:54:32.006Z,6.65
2023-04-28T01:57:00.215Z,7.07
2023-04-28T01:59:31.334Z,6.75
2023-04-28T02:02:00.202Z,7.15
2023-04-28T02:04:28.435Z,7.43
2023-04-28T02:06:56.414Z,6.75
2023-04-28T02:09:24.377Z,8.15
2023-04-28T02:11:52.255Z,7.50
2023-04-28T02:14:21.869Z,7.20
2023-04-28T02:16:51.060Z,7.10
2023-04-28T02:19:18.927Z,7.40
2023-04-28T02:21:46.911Z,7.47
2023-04-28T02:24:15.214Z,7.38
2023-04-28T02:26:43.241Z,7.65
2023-04-28T02:29:11.378Z,7.35
2023-04-28T02:31:39.401Z,7.65
2023-04-28T02:34:08.592Z,7.38
2023-04-28T02:36:36.827Z,7.18
2023-04-28T02:39:05.201Z,7.18
2023-04-28T02:41:34.687Z,7.38
2023-04-28T02:44:02.610Z,7.03
2023-04-28T02:46:31.596Z,6.85
2023-04-28T02:48:59.472Z,7.43
2023-04-28T02:51:28.677Z,7.80
2023-04-28T02:53:56.580Z,7.70
2023-04-28T02:56:25.081Z,8.18
2023-04-28T02:58:53.089Z,7.00
2023-04-28T03:01:21.039Z,8.35
2023-04-28T03:03:49.230Z,8.10
2023-04-28T03:06:17.329Z,7.28
2023-04-28T03:08:46.498Z,7.68
2023-04-28T03:11:14.415Z,7.30
2023-04-28T03:13:42.594Z,8.18
2023-04-28T03:16:10.451Z,7.22
2023-04-28T03:18:38.517Z,6.95
2023-04-28T03:21:06.863Z,7.18
2023-04-28T03:23:34.708Z,7.70
2023-04-28T03:26:05.051Z,6.90
2023-04-28T03:28:33.077Z,8.27
2023-04-28T03:31:02.620Z,7.15
2023-04-28T03:33:30.773Z,7.35
2023-04-28T03:36:00.606Z,7.07
2023-04-28T03:38:29.619Z,7.93
2023-04-28T03:41:00.267Z,8.13
2023-04-28T03:43:53.399Z,7.82
2023-04-28T03:46:30.583Z,7.03
2023-04-28T03:49:01.854Z,8.10
2023-04-28T03:51:29.859Z,8.25
2023-04-28T03:53:57.866Z,7.93
2023-04-28T03:56:25.821Z,8.93
2023-04-28T03:58:55.041Z,7.80
2023-04-28T04:01:25.030Z,7.78
2023-04-28T04:03:53.916Z,7.15
2023-04-28T04:06:22.451Z,7.60
2023-04-28T04:08:50.867Z,7.22
2023-04-28T04:11:19.710Z,9.60
2023-04-28T04:13:47.912Z,9.55
2023-04-28T04:16:19.150Z,9.60
2023-04-28T04:18:47.829Z,10.82
2023-04-28T04:21:19.708Z,9.65
2023-04-28T04:23:48.520Z,8.85
2023-04-28T04:26:16.545Z,9.02
2023-04-28T04:28:45.492Z,8.15
2023-04-28T04:31:13.541Z,8.30
2023-04-28T04:33:44.119Z,8.13
2023-04-28T04:36:12.471Z,7.72
2023-04-28T04:38:40.757Z,8.82
2023-04-28T04:41:17.657Z,9.68
2023-04-28T04:43:45.676Z,11.90
2023-04-28T04:46:13.881Z,8.43
2023-04-28T04:48:41.717Z,8.02
2023-04-28T04:51:11.555Z,7.50
2023-04-28T04:53:40.268Z,7.97
2023-04-28T04:56:08.871Z,7.63
2023-04-28T04:58:38.178Z,7.32
2023-04-28T05:01:24.555Z,7.90
2023-04-28T05:03:52.496Z,6.90
2023-04-28T05:06:22.554Z,7.57
2023-04-28T05:08:50.725Z,6.50
2023-04-28T05:11:19.156Z,6.47
2023-04-28T05:13:47.227Z,6.75
2023-04-28T05:16:15.214Z,6.05
2023-04-28T05:18:49.153Z,6.37
2023-04-28T05:21:17.109Z,6.20
2023-04-28T05:23:46.614Z,5.80
2023-04-28T05:26:14.677Z,5.93
2023-04-28T05:28:42.805Z,6.30
2023-04-28T05:31:11.004Z,5.88
2023-04-28T05:33:39.152Z,5.45
2023-04-28T05:36:07.626Z,5.97
2023-04-28T05:38:36.640Z,5.10
2023-04-28T05:41:06.163Z,5.05
2023-04-28T05:43:34.248Z,4.43
2023-04-28T05:46:02.327Z,4.80
2023-04-28T05:48:30.746Z,4.85
2023-04-28T05:50:58.609Z,4.50
2023-04-28T05:53:26.879Z,3.35
2023-04-28T05:55:54.772Z,3.78
2023-04-28T05:58:24.160Z,3.00
2023-04-28T06:00:51.938Z,3.25
2023-04-28T06:03:20.325Z,3.20
2023-04-28T06:05:49.262Z,3.83
2023-04-28T06:08:17.896Z,5.28
2023-04-28T06:10:45.806Z,6.03
2023-04-28T06:13:14.688Z,3.20
2023-04-28T06:15:44.447Z,3.20
2023-04-28T06:18:12.348Z,2.35
2023-04-28T06:20:40.085Z,2.35
2023-04-28T06:23:09.084Z,2.25
2023-04-28T06:28:14.939Z,1.60
2023-04-28T06:30:44.203Z,2.08
2023-04-28T06:33:12.054Z,1.58
2023-04-28T06:35:41.276Z,1.85
2023-04-28T06:38:09.319Z,1.60
2023-04-28T06:40:38.309Z,1.90
2023-04-28T06:43:07.404Z,1.90
2023-04-28T06:46:09.163Z,1.80
2023-04-28T06:48:37.091Z,2.33
2023-04-28T06:51:05.181Z,4.72
2023-04-28T06:53:35.022Z,1.70
2023-04-28T06:56:03.737Z,1.95
2023-04-28T06:58:31.629Z,1.90
2023-04-28T07:00:59.588Z,2.05
2023-04-28T07:03:29.214Z,1.92
2023-04-28T07:05:57.095Z,1.60
2023-04-28T07:08:25.397Z,1.50
2023-04-28T07:10:53.205Z,1.65
2023-04-28T07:13:21.064Z,1.30
2023-04-28T07:15:48.928Z,1.42
2023-04-28T07:18:16.927Z,1.40
2023-04-28T07:20:46.137Z,1.40
2023-04-28T07:23:14.047Z,2.05
2023-04-28T07:25:42.031Z,1.50
2023-04-28T07:28:10.136Z,1.17
2023-04-28T07:30:38.026Z,1.20
2023-04-28T07:33:05.869Z,1.45
2023-04-28T07:35:33.740Z,1.30
2023-04-28T07:38:03.315Z,1.70
2023-04-28T07:40:31.171Z,1.45
2023-04-28T07:42:59.042Z,1.50
2023-04-28T07:45:27.354Z,1.80
2023-04-28T07:47:55.218Z,1.80
2023-04-28T07:50:23.477Z,1.20
2023-04-28T07:52:52.024Z,1.73
2023-04-28T07:55:22.321Z,1.30
2023-04-28T07:57:50.565Z,1.33
2023-04-28T08:00:19.329Z,1.10
2023-04-28T08:02:47.228Z,1.30
2023-04-28T08:05:15.486Z,1.33
2023-04-28T08:07:43.477Z,1.70
2023-04-28T08:10:11.693Z,1.90
2023-04-28T08:12:41.866Z,1.80
2023-04-28T08:15:10.157Z,1.73
2023-04-28T08:17:38.251Z,1.55
2023-04-28T08:20:06.946Z,1.40
2023-04-28T08:22:34.760Z,1.42
2023-04-28T08:25:02.698Z,1.60
2023-04-28T08:27:30.498Z,1.35
2023-04-28T08:29:59.874Z,1.83
2023-04-28T08:32:27.927Z,1.50
2023-04-28T08:34:55.790Z,1.42
2023-04-28T08:37:23.668Z,1.65
2023-04-28T08:39:52.780Z,1.45
2023-04-28T08:42:20.783Z,1.70
2023-04-28T08:44:49.255Z,2.00
2023-04-28T08:47:19.985Z,2.13
2023-04-28T08:49:48.793Z,1.88
2023-04-28T08:52:18.390Z,1.48
2023-04-28T08:54:48.205Z,1.92
2023-04-28T08:57:16.267Z,2.03
2023-04-28T08:59:44.179Z,2.38
2023-04-28T09:02:12.396Z,2.45
2023-04-28T09:04:41.974Z,2.00
2023-04-28T09:07:12.059Z,1.65
2023-04-28T09:09:41.001Z,1.52
2023-04-28T09:12:09.280Z,1.63
2023-04-28T09:14:37.564Z,2.10
2023-04-28T09:17:10.885Z,2.03
2023-04-28T09:19:39.362Z,1.80
2023-04-28T09:22:24.797Z,1.63
2023-04-28T09:24:55.332Z,1.60
2023-04-28T09:27:28.074Z,1.77
2023-04-28T09:29:55.961Z,1.90
2023-04-28T09:32:24.814Z,1.88
2023-04-28T09:34:54.229Z,3.50
2023-04-28T09:37:25.005Z,3.38
2023-04-28T09:39:54.132Z,2.55
2023-04-28T09:42:35.173Z,2.33
2023-04-28T09:45:03.502Z,2.40
2023-04-28T09:47:35.047Z,2.15
2023-04-28T09:50:04.189Z,2.08
2023-04-28T09:52:34.295Z,2.67
2023-04-28T09:55:02.913Z,2.60
2023-04-28T09:57:33.651Z,2.47
2023-04-28T10:00:02.295Z,2.40
2023-04-28T10:02:43.305Z,2.63
2023-04-28T10:05:13.147Z,2.42
2023-04-28T10:07:42.644Z,2.40
2023-04-28T10:10:10.891Z,2.50
2023-04-28T10:12:39.186Z,3.00
2023-04-28T10:15:08.541Z,2.08
2023-04-28T10:17:37.110Z,2.17
2023-04-28T10:20:06.523Z,2.03
2023-04-28T10:22:43.372Z,1.90
2023-04-28T10:25:22.473Z,1.95
2023-04-28T10:27:51.003Z,2.00
2023-04-28T10:30:27.334Z,1.80
2023-04-28T10:33:15.484Z,1.60
2023-04-28T10:35:44.740Z,1.63
2023-04-28T10:38:14.888Z,2.00
2023-04-28T10:40:44.763Z,2.10
2023-04-28T10:43:13.257Z,2.70
2023-04-28T10:46:04.079Z,2.30
2023-04-28T10:48:46.879Z,2.35
2023-04-28T10:51:25.620Z,2.95
2023-04-28T10:54:23.652Z,2.97
2023-04-28T10:57:10.227Z,2.85
2023-04-28T10:59:39.462Z,3.45
2023-04-28T11:02:22.254Z,3.17
2023-04-28T11:05:05.155Z,3.40
2023-04-28T11:07:33.938Z,3.03
2023-04-28T11:10:01.717Z,2.97
2023-04-28T11:12:29.547Z,2.63
2023-04-28T11:15:12.719Z,2.72
2023-04-28T11:17:41.539Z,2.70
2023-04-28T11:20:13.650Z,2.97
2023-04-28T11:22:41.664Z,2.35
2023-04-28T11:25:09.634Z,2.40
2023-04-28T11:27:37.716Z,2.22
2023-04-28T11:30:20.585Z,2.28
2023-04-28T11:32:50.903Z,2.58
2023-04-28T11:35:19.032Z,2.20
2023-04-28T11:37:46.957Z,2.53
2023-04-28T11:40:15.762Z,2.08
2023-04-28T11:42:48.311Z,2.35
2023-04-28T11:45:17.733Z,2.30
2023-04-28T11:47:45.682Z,2.03
2023-04-28T11:50:14.521Z,2.00
2023-04-28T11:52:50.884Z,1.80
2023-04-28T11:55:20.304Z,2.03
2023-04-28T11:57:48.245Z,2.00
2023-04-28T12:00:21.803Z,1.88
2023-04-28T12:02:49.902Z,1.40
2023-04-28T12:05:17.986Z,1.30
2023-04-28T12:07:46.804Z,2.00
2023-04-28T12:10:16.109Z,1.80
2023-04-28T12:15:14.933Z,1.48
2023-04-28T12:17:44.430Z,1.42
2023-04-28T12:20:13.188Z,1.40
2023-04-28T12:22:50.814Z,1.17
2023-04-28T12:25:19.453Z,1.00
2023-04-28T12:28:00.734Z,0.85
2023-04-28T12:30:29.299Z,0.88
2023-04-28T12:32:58.609Z,0.70
2023-04-28T12:35:27.471Z,0.60
2023-04-28T12:37:56.244Z,0.60
2023-04-28T12:40:24.570Z,0.70
2023-04-28T12:42:52.462Z,0.75
2023-04-28T12:45:20.343Z,0.88
2023-04-28T12:47:48.371Z,0.63
2023-04-28T12:50:17.754Z,0.52
2023-04-28T12:52:45.612Z,0.85
2023-04-28T12:55:13.398Z,0.50
2023-04-28T12:57:41.585Z,0.60
2023-04-28T13:00:10.555Z,0.68
2023-04-28T13:02:40.195Z,0.70
2023-04-28T13:05:09.336Z,0.50
2023-04-28T13:07:38.678Z,0.60
2023-04-28T13:10:08.079Z,0.63
2023-04-28T13:12:36.159Z,0.60
2023-04-28T13:15:05.461Z,0.70
2023-04-28T13:17:33.978Z,0.60
2023-04-28T13:20:03.970Z,0.70
2023-04-28T13:22:33.443Z,0.70
2023-04-28T13:25:03.422Z,0.50
2023-04-28T13:27:34.663Z,0.52
2023-04-28T13:30:06.476Z,1.05
2023-04-28T13:32:35.476Z,1.13
2023-04-28T13:35:05.319Z,0.95
2023-04-28T13:37:34.462Z,0.85
2023-04-28T13:40:04.520Z,0.68
2023-04-28T13:42:32.463Z,0.80
2023-04-28T13:45:00.227Z,0.80
2023-04-28T13:47:28.988Z,0.80
2023-04-28T13:49:56.982Z,0.98
2023-04-28T13:52:24.838Z,1.02
2023-04-28T13:54:52.851Z,1.27
2023-04-28T13:57:22.233Z,1.08
2023-04-28T13:59:50.103Z,0.85
2023-04-28T14:02:18.359Z,1.00
2023-04-28T14:04:51.074Z,0.90
2023-04-28T14:07:19.408Z,1.00
2023-04-28T14:09:50.332Z,1.20
2023-04-28T14:12:18.085Z,1.25
2023-04-28T14:14:49.706Z,1.02
2023-04-28T14:17:17.844Z,1.10
2023-04-28T14:19:45.673Z,1.10
2023-04-28T14:22:15.120Z,1.45
2023-04-28T14:24:43.249Z,1.23
2023-04-28T14:27:14.237Z,1.63
2023-04-28T14:29:43.526Z,1.80
2023-04-28T14:32:12.899Z,4.10
2023-04-28T14:34:40.766Z,1.92
2023-04-28T14:37:10.518Z,1.65
2023-04-28T14:39:39.934Z,1.60
2023-04-28T14:42:09.125Z,1.90
2023-04-28T14:44:37.017Z,1.70
2023-04-28T14:47:06.550Z,1.58
2023-04-28T14:49:35.864Z,2.33
2023-04-28T14:52:03.800Z,2.08
2023-04-28T14:54:32.215Z,1.60
2023-04-28T14:57:00.147Z,1.98
2023-04-28T14:59:28.418Z,1.92
2023-04-28T15:01:57.808Z,1.90
2023-04-28T15:04:30.848Z,1.90
2023-04-28T15:07:01.229Z,1.63
2023-04-28T15:09:29.274Z,1.70
2023-04-28T15:11:58.561Z,1.88
2023-04-28T15:14:26.652Z,2.08
2023-04-28T15:16:54.616Z,2.13
2023-04-28T15:19:24.575Z,2.13
2023-04-28T15:21:54.269Z,2.53
2023-04-28T15:24:23.556Z,2.42
2023-04-28T15:26:51.624Z,2.90
2023-04-28T15:29:19.609Z,3.40
2023-04-28T15:31:48.385Z,3.75
2023-04-28T15:34:18.630Z,5.22
2023-04-28T15:36:46.485Z,4.20
2023-04-28T15:39:16.099Z,4.10
2023-04-28T15:41:45.753Z,4.88
2023-04-28T15:44:14.353Z,5.07
2023-04-28T15:46:42.236Z,5.63
2023-04-28T15:49:10.748Z,4.90
2023-04-28T15:51:39.051Z,4.90
2023-04-28T15:54:06.868Z,4.57
2023-04-28T15:56:34.952Z,4.80
2023-04-28T15:59:04.802Z,5.35
2023-04-28T16:01:32.714Z,5.60
2023-04-28T16:04:01.400Z,6.47
2023-04-28T16:06:30.433Z,6.65
2023-04-28T16:08:58.585Z,7.80
2023-04-28T16:11:26.701Z,7.85
2023-04-28T16:13:54.920Z,8.98
2023-04-28T16:16:25.763Z,9.10
2023-04-28T16:18:55.041Z,10.13
2023-04-28T16:21:23.682Z,10.88
2023-04-28T16:23:51.679Z,11.65
2023-04-28T16:26:19.524Z,12.55
2023-04-28T16:28:47.437Z,11.88
2023-04-28T16:31:15.251Z,13.60
2023-04-28T16:33:44.917Z,13.00
2023-04-28T16:36:12.821Z,14.75
2023-04-28T16:38:41.286Z,13.65
2023-04-28T16:41:09.390Z,13.23
2023-04-28T16:43:38.390Z,13.70
2023-04-28T16:46:07.739Z,13.43
2023-04-28T16:48:35.887Z,11.77
2023-04-28T16:51:08.267Z,9.27
2023-04-28T16:53:36.594Z,7.63
2023-04-28T16:56:05.020Z,7.82
2023-04-28T16:58:34.166Z,7.22
2023-04-28T17:01:02.182Z,13.57
2023-04-28T17:03:31.024Z,6.43
2023-04-28T17:06:00.371Z,3.67
2023-04-28T17:08:30.440Z,2.97
2023-04-28T17:10:58.308Z,3.15
2023-04-28T17:13:28.503Z,2.30
2023-04-28T17:15:57.888Z,2.55
2023-04-28T17:18:26.751Z,4.00
2023-04-28T17:20:55.929Z,1.73
2023-04-28T17:23:23.781Z,1.60
2023-04-28T17:25:53.418Z,1.85
2023-04-28T17:28:25.626Z,2.05
2023-04-28T17:30:54.982Z,2.15
2023-04-28T17:33:22.832Z,2.45
2023-04-28T17:35:52.328Z,2.15
2023-04-28T17:38:20.658Z,2.53
2023-04-28T17:40:49.765Z,3.58
2023-04-28T17:43:20.305Z,2.25
2023-04-28T17:45:48.315Z,3.20
2023-04-28T17:48:16.159Z,5.65
2023-04-28T17:50:43.986Z,3.20
2023-04-28T17:53:14.322Z,2.83
2023-04-28T17:55:42.855Z,9.00
2023-04-28T17:58:10.906Z,4.82
2023-04-28T18:00:40.112Z,3.22
2023-04-28T18:03:08.385Z,4.20
2023-04-28T18:05:36.487Z,5.32
2023-04-28T18:08:04.660Z,4.85
2023-04-28T18:10:32.501Z,8.30
2023-04-28T18:13:00.505Z,5.38
2023-04-28T18:15:28.946Z,3.33
2023-04-28T18:17:58.487Z,4.20
2023-04-28T18:20:27.513Z,22.77
2023-04-28T18:22:57.260Z,6.55
2023-04-28T18:25:26.293Z,7.13
2023-04-28T18:27:55.484Z,4.80
2023-04-28T18:30:23.499Z,6.82
2023-04-28T18:32:52.413Z,26.77
2023-04-28T18:35:21.942Z,7.88
2023-04-28T18:37:51.863Z,18.15
2023-04-28T18:40:22.725Z,13.25
2023-04-28T18:42:50.590Z,12.75
2023-04-28T18:45:18.880Z,14.30
2023-04-28T18:47:48.818Z,35.38
2023-04-28T18:50:17.669Z,13.18
2023-04-28T18:52:47.059Z,7.50
2023-04-28T18:55:16.236Z,3.88
2023-04-28T18:57:44.292Z,5.35
2023-04-28T19:00:13.713Z,9.48
2023-04-28T19:02:42.341Z,7.05
2023-04-28T19:05:11.252Z,5.47
2023-04-28T19:07:39.304Z,9.25
2023-04-28T19:10:09.331Z,6.15
2023-04-28T19:12:38.168Z,6.32
2023-04-28T19:15:06.767Z,6.32
2023-04-28T19:17:35.503Z,9.63
2023-04-28T19:20:04.235Z,5.78
2023-04-28T19:22:32.821Z,6.38
2023-04-28T19:25:01.310Z,6.78
2023-04-28T19:27:34.079Z,6.55
2023-04-28T19:30:02.409Z,5.57
2023-04-28T19:32:30.479Z,4.57
2023-04-28T19:34:58.560Z,4.25
2023-04-28T19:37:27.928Z,4.35
2023-04-28T19:39:55.850Z,3.78
2023-04-28T19:42:23.914Z,2.33
2023-04-28T19:44:56.459Z,1.77
2023-04-28T19:47:24.945Z,1.50
2023-04-28T19:49:53.234Z,1.60
2023-04-28T19:52:21.909Z,2.40
2023-04-28T19:54:49.783Z,3.35
2023-04-28T19:57:18.806Z,2.80
2023-04-28T19:59:47.299Z,10.68
2023-04-28T20:02:16.833Z,3.60
2023-04-28T20:04:45.007Z,3.85
2023-04-28T20:07:13.296Z,3.03
2023-04-28T20:09:41.401Z,2.35
2023-04-28T20:12:09.919Z,2.13
2023-04-28T20:14:38.349Z,1.95
2023-04-28T20:17:07.429Z,1.80
2023-04-28T20:19:36.948Z,1.80
2023-04-28T20:22:08.419Z,2.08
2023-04-28T20:24:37.403Z,1.55
2023-04-28T20:27:05.311Z,1.45
2023-04-28T20:29:34.986Z,1.25
2023-04-28T20:32:03.601Z,1.20
2023-04-28T20:34:31.855Z,0.98
2023-04-28T20:37:04.257Z,1.00
2023-04-28T20:39:32.200Z,1.48
2023-04-28T20:42:00.737Z,2.20
2023-04-28T20:44:28.801Z,2.88
2023-04-28T20:46:57.280Z,9.95
2023-04-28T20:49:25.490Z,2.50
2023-04-28T20:51:53.402Z,2.63
2023-04-28T20:54:23.072Z,2.08
2023-04-28T20:56:50.907Z,2.33
2023-04-28T20:59:18.840Z,2.30
2023-04-28T21:01:46.776Z,4.10
2023-04-28T21:04:15.305Z,4.28
2023-04-28T21:06:43.402Z,3.47
2023-04-28T21:09:11.960Z,3.33
2023-04-28T21:11:42.029Z,3.40
2023-04-28T21:14:10.448Z,2.40
2023-04-28T21:16:38.779Z,1.85
2023-04-28T21:19:06.599Z,2.10
2023-04-28T21:21:35.123Z,2.22
2023-04-28T21:24:03.001Z,1.90
2023-04-28T21:26:30.937Z,2.10
2023-04-28T21:29:00.494Z,2.10
2023-04-28T21:31:28.784Z,1.98
2023-04-28T21:33:57.528Z,1.57
2023-04-28T21:36:25.369Z,1.90
2023-04-28T21:38:53.177Z,2.38
2023-04-28T21:41:21.400Z,1.80
2023-04-28T21:43:49.286Z,2.13
2023-04-28T21:46:19.114Z,2.10
2023-04-28T21:48:47.348Z,1.98
2023-04-28T21:51:15.727Z,1.67
2023-04-28T21:53:43.577Z,1.50
2023-04-28T21:56:11.813Z,1.70
2023-04-28T21:58:39.664Z,2.00
2023-04-28T22:01:07.577Z,1.80
2023-04-28T22:03:37.301Z,1.70
2023-04-28T22:06:05.721Z,1.85
2023-04-28T22:08:33.757Z,2.10
2023-04-28T22:11:01.673Z,2.03
2023-04-28T22:13:29.805Z,1.58
2023-04-28T22:15:59.248Z,2.03
2023-04-28T22:18:27.410Z,2.28
2023-04-28T22:20:56.811Z,2.08
2023-04-28T22:23:24.602Z,2.33
2023-04-28T22:25:52.583Z,3.63
2023-04-28T22:28:20.593Z,2.03
2023-04-28T22:30:48.550Z,6.60
2023-04-28T22:33:17.082Z,3.00
2023-04-28T22:35:44.962Z,2.20
2023-04-28T22:38:14.118Z,2.85
2023-04-28T22:40:41.975Z,2.20
2023-04-28T22:43:10.077Z,2.30
2023-04-28T22:45:38.188Z,2.95
2023-04-28T22:48:06.677Z,2.80
2023-04-28T22:50:34.530Z,3.08
2023-04-28T22:53:03.892Z,3.50
2023-04-28T22:55:33.059Z,2.92
2023-04-28T22:58:00.949Z,2.72
2023-04-28T23:00:28.826Z,2.75
2023-04-28T23:02:57.098Z,2.67
2023-04-28T23:05:25.069Z,2.35
2023-04-28T23:07:52.988Z,2.38
2023-04-28T23:10:20.886Z,2.50
2023-04-28T23:12:50.091Z,2.38
2023-04-28T23:15:18.268Z,2.42
2023-04-28T23:17:46.388Z,2.60
2023-04-28T23:20:14.487Z,2.70
2023-04-28T23:22:42.386Z,5.53
2023-04-28T23:25:10.546Z,5.45
2023-04-28T23:27:38.411Z,4.82
2023-04-28T23:30:08.695Z,5.38
2023-04-28T23:32:38.585Z,5.65
2023-04-28T23:35:06.801Z,5.78
2023-04-28T23:37:34.686Z,6.40
2023-04-28T23:40:03.247Z,7.00
2023-04-28T23:42:31.273Z,8.18
2023-04-28T23:45:01.402Z,7.95
2023-04-28T23:47:30.748Z,7.95
2023-04-28T23:49:58.770Z,6.75
2023-04-28T23:52:27.123Z,8.20
2023-04-28T23:54:55.000Z,8.43
2023-04-28T23:57:23.278Z,6.82
2023-04-28T23:59:51.726Z,9.95
